Time;durP1;ratioP1;P1;durP2;ratioP2;P2;SDS_P1;SDS_P2;PMS_P1;PMS_P2;Temp;Humidity;BMP_temperature;BMP_pressure;BME280_temperature;BME280_humidity;BME280_pressure;Samples;Min_cycle;Max_cycle;Signal;HPM_P1;HPM_P2
2022/03/14 00:01:08;;;;;;;27.43;13.70;;;9.30;77.60;;;;;;5052932;28;20189;-74
2022/03/14 00:03:55;;;;;;;27.17;13.73;;;9.40;76.80;;;;;;5053021;28;20205;-74
2022/03/14 00:06:20;;;;;;;29.30;13.13;;;9.40;76.50;;;;;;5054081;28;20221;-74
2022/03/14 00:08:47;;;;;;;28.53;13.67;;;9.50;76.50;;;;;;5053040;28;20196;-74
2022/03/14 00:11:14;;;;;;;34.03;13.80;;;9.50;75.70;;;;;;5052645;28;20175;-75
2022/03/14 00:13:46;;;;;;;30.77;14.17;;;9.60;75.40;;;;;;5052918;28;20168;-74
2022/03/14 00:16:22;;;;;;;30.93;14.37;;;9.60;75.60;;;;;;5052871;28;20276;-75
2022/03/14 00:18:50;;;;;;;29.13;14.37;;;9.40;76.30;;;;;;5052738;28;20244;-74
2022/03/14 00:21:16;;;;;;;31.33;14.60;;;9.40;77.70;;;;;;5052478;28;20181;-74
2022/03/14 00:23:43;;;;;;;29.70;13.97;;;9.40;77.00;;;;;;5052620;28;20545;-74
2022/03/14 00:26:09;;;;;;;34.83;14.83;;;9.20;78.50;;;;;;5052541;28;20296;-75
2022/03/14 00:28:35;;;;;;;28.53;13.67;;;9.30;79.10;;;;;;5052584;28;20221;-74
2022/03/14 00:31:01;;;;;;;33.73;14.70;;;9.40;77.50;;;;;;5051995;28;20172;-74
2022/03/14 00:33:26;;;;;;;31.23;14.37;;;9.50;77.00;;;;;;5053669;28;20190;-73
2022/03/14 00:35:52;;;;;;;30.87;14.60;;;9.50;77.80;;;;;;5052353;28;20178;-73
2022/03/14 00:38:18;;;;;;;30.10;14.53;;;9.40;77.40;;;;;;5052258;28;20208;-74
2022/03/14 00:40:44;;;;;;;31.83;14.23;;;9.40;78.70;;;;;;5052243;28;20183;-74
2022/03/14 00:43:10;;;;;;;30.40;13.87;;;9.40;79.60;;;;;;5052116;28;20173;-74
2022/03/14 00:45:35;;;;;;;31.67;14.33;;;9.30;79.50;;;;;;5052187;28;20460;-74
2022/03/14 00:48:01;;;;;;;36.30;15.03;;;9.30;79.60;;;;;;5052181;28;20185;-74
2022/03/14 00:50:27;;;;;;;28.30;13.60;;;9.30;79.70;;;;;;5053325;28;20193;-74
2022/03/14 00:52:52;;;;;;;27.60;13.80;;;9.30;79.60;;;;;;5051822;28;20266;-73
2022/03/14 00:55:19;;;;;;;31.20;13.97;;;9.30;78.20;;;;;;5052028;28;20171;-74
2022/03/14 00:57:44;;;;;;;30.07;14.47;;;9.30;78.50;;;;;;5051959;28;20167;-74
2022/03/14 01:00:11;;;;;;;34.30;15.03;;;9.40;77.50;;;;;;5051944;28;20276;-74
2022/03/14 01:02:36;;;;;;;35.80;14.80;;;9.40;78.00;;;;;;5051730;28;20670;-74
2022/03/14 01:05:02;;;;;;;32.53;15.03;;;9.30;79.20;;;;;;5051897;28;20177;-74
2022/03/14 01:07:28;;;;;;;26.90;14.03;;;9.20;80.10;;;;;;5051701;28;20226;-73
2022/03/14 01:09:53;;;;;;;30.37;14.17;;;9.20;80.00;;;;;;5053221;28;20184;-74
2022/03/14 01:12:19;;;;;;;33.97;15.63;;;9.20;78.90;;;;;;5051621;28;20171;-74
2022/03/14 01:14:45;;;;;;;30.27;14.97;;;9.20;79.20;;;;;;5051662;28;20189;-74
2022/03/14 01:17:11;;;;;;;32.60;14.90;;;9.20;79.30;;;;;;5051517;28;20180;-74
2022/03/14 01:19:38;;;;;;;28.43;14.13;;;9.20;78.90;;;;;;5051431;28;20216;-73
2022/03/14 01:22:10;;;;;;;34.53;15.00;;;9.00;79.40;;;;;;5051355;28;20193;-74
2022/03/14 01:24:38;;;;;;;30.27;13.70;;;9.00;80.30;;;;;;5051503;28;20185;-74
2022/03/14 01:27:05;;;;;;;30.10;13.93;;;8.90;83.40;;;;;;5051422;28;20213;-74
2022/03/14 01:29:30;;;;;;;30.97;13.97;;;8.80;86.10;;;;;;5051339;28;20215;-74
2022/03/14 01:31:57;;;;;;;32.00;14.77;;;8.90;85.20;;;;;;5051038;28;20180;-74
2022/03/14 01:34:23;;;;;;;31.60;14.20;;;9.00;84.50;;;;;;5051247;28;20173;-73
2022/03/14 01:36:48;;;;;;;30.87;14.53;;;9.00;84.50;;;;;;5051348;28;20277;-73
2022/03/14 01:39:14;;;;;;;31.90;14.73;;;9.10;80.30;;;;;;5051171;28;20231;-74
2022/03/14 01:41:40;;;;;;;29.60;13.57;;;9.30;81.40;;;;;;5051345;28;20205;-74
2022/03/14 01:44:05;;;;;;;32.40;15.30;;;9.20;80.30;;;;;;5051138;28;20188;-73
2022/03/14 01:46:31;;;;;;;30.57;13.50;;;8.80;83.60;;;;;;5050951;28;20213;-74
2022/03/14 01:48:58;;;;;;;33.67;14.47;;;8.80;83.50;;;;;;5051007;28;20783;-74
2022/03/14 01:51:24;;;;;;;27.53;14.17;;;9.00;82.60;;;;;;5050814;28;20267;-74
2022/03/14 01:53:50;;;;;;;29.13;14.23;;;8.90;83.60;;;;;;5050946;28;20271;-74
2022/03/14 01:56:16;;;;;;;32.63;15.17;;;8.90;82.40;;;;;;5050987;28;20244;-74
2022/03/14 01:58:42;;;;;;;29.67;14.00;;;9.00;82.40;;;;;;5050732;28;20662;-74
2022/03/14 02:01:08;;;;;;;31.97;14.17;;;9.00;81.70;;;;;;5050776;28;20184;-74
2022/03/14 02:03:34;;;;;;;27.73;13.37;;;9.00;80.30;;;;;;5050262;28;20185;-74
2022/03/14 02:05:59;;;;;;;32.40;14.90;;;9.10;81.60;;;;;;5050831;28;20677;-74
2022/03/14 02:08:25;;;;;;;34.20;13.77;;;9.00;79.30;;;;;;5050736;28;20740;-74
2022/03/14 02:10:51;;;;;;;31.47;14.87;;;9.10;78.80;;;;;;5050669;28;20172;-73
2022/03/14 02:13:16;;;;;;;33.43;14.90;;;9.10;80.30;;;;;;5050515;28;20179;-74
2022/03/14 02:15:42;;;;;;;28.20;13.97;;;9.20;81.00;;;;;;5050488;28;20180;-74
2022/03/14 02:18:08;;;;;;;33.63;14.90;;;9.30;80.40;;;;;;5050475;28;20227;-74
2022/03/14 02:20:34;;;;;;;31.77;15.17;;;9.10;81.30;;;;;;5050617;28;20182;-74
2022/03/14 02:23:00;;;;;;;29.07;14.30;;;8.90;81.10;;;;;;5050275;28;20219;-74
2022/03/14 02:25:26;;;;;;;29.33;14.47;;;8.90;81.70;;;;;;5050407;28;20227;-74
2022/03/14 02:27:52;;;;;;;30.53;14.00;;;9.10;81.30;;;;;;5051765;28;20259;-74
2022/03/14 02:30:18;;;;;;;31.33;14.90;;;9.10;81.60;;;;;;5051811;28;20172;-74
2022/03/14 02:32:45;;;;;;;30.70;14.53;;;9.10;82.10;;;;;;5050035;28;20625;-75
2022/03/14 02:35:11;;;;;;;30.63;14.83;;;9.30;82.60;;;;;;5050407;28;20232;-75
2022/03/14 02:37:38;;;;;;;34.10;15.07;;;9.00;85.30;;;;;;5050328;28;20210;-75
2022/03/14 02:40:05;;;;;;;33.57;16.23;;;8.90;84.70;;;;;;5050393;28;20176;-75
2022/03/14 02:42:31;;;;;;;38.13;16.50;;;9.00;84.40;;;;;;5050120;28;20181;-74
2022/03/14 02:44:57;;;;;;;30.37;14.97;;;9.00;85.00;;;;;;5050305;28;20187;-74
2022/03/14 02:47:23;;;;;;;32.43;15.07;;;9.10;82.50;;;;;;5050161;28;20229;-74
2022/03/14 02:49:48;;;;;;;34.07;15.13;;;9.20;81.90;;;;;;5050123;28;20198;-74
2022/03/14 02:52:14;;;;;;;28.00;14.07;;;9.30;82.60;;;;;;5050080;28;20197;-74
2022/03/14 02:54:41;;;;;;;30.83;15.00;;;9.30;81.30;;;;;;5050138;28;20181;-74
2022/03/14 02:57:08;;;;;;;29.87;13.90;;;9.40;81.60;;;;;;5050199;28;20276;-74
2022/03/14 02:59:34;;;;;;;28.20;14.47;;;9.30;82.30;;;;;;5049999;28;20230;-74
2022/03/14 03:01:59;;;;;;;33.67;15.13;;;9.30;84.00;;;;;;5049567;28;20533;-73
2022/03/14 03:04:25;;;;;;;31.03;15.00;;;9.20;83.60;;;;;;5049689;28;20671;-74
2022/03/14 03:06:53;;;;;;;28.33;14.73;;;9.20;84.10;;;;;;5049665;28;20209;-74
2022/03/14 03:09:19;;;;;;;32.40;14.43;;;9.00;87.40;;;;;;5049975;28;20200;-74
2022/03/14 03:11:45;;;;;;;30.17;14.47;;;8.90;83.90;;;;;;5049747;28;20279;-73
2022/03/14 03:14:10;;;;;;;29.90;13.97;;;9.00;84.70;;;;;;5052018;28;20176;-73
2022/03/14 03:16:36;;;;;;;31.23;15.47;;;8.90;87.10;;;;;;5053574;28;20491;-73
2022/03/14 03:19:03;;;;;;;32.57;16.13;;;8.90;87.70;;;;;;5053838;28;20676;-73
2022/03/14 03:21:28;;;;;;;29.80;15.77;;;8.90;90.70;;;;;;5053658;28;20180;-74
2022/03/14 03:23:54;;;;;;;36.87;15.60;;;8.90;89.40;;;;;;5053724;28;20195;-73
2022/03/14 03:26:21;;;;;;;35.10;16.40;;;9.10;90.50;;;;;;5053704;28;20290;-73
2022/03/14 03:28:47;;;;;;;34.47;15.60;;;9.00;91.00;;;;;;5053537;28;20333;-73
2022/03/14 03:31:17;;;;;;;30.43;15.43;;;8.70;92.00;;;;;;5053175;28;20203;-73
2022/03/14 03:33:43;;;;;;;31.37;15.40;;;8.50;90.80;;;;;;5053751;28;20171;-73
2022/03/14 03:36:09;;;;;;;37.57;15.50;;;8.50;91.60;;;;;;5053611;28;20575;-74
2022/03/14 03:38:35;;;;;;;32.30;14.87;;;8.70;90.50;;;;;;5054805;28;20199;-73
2022/03/14 03:41:01;;;;;;;30.57;14.17;;;8.70;89.00;;;;;;5053354;28;20185;-73
2022/03/14 03:43:28;;;;;;;33.97;14.73;;;8.80;88.50;;;;;;5053317;28;20265;-74
2022/03/14 03:45:54;;;;;;;31.23;15.00;;;8.90;88.60;;;;;;5053290;28;20238;-73
2022/03/14 03:48:20;;;;;;;30.77;15.00;;;8.80;91.00;;;;;;5053588;28;20595;-74
2022/03/14 03:50:46;;;;;;;27.23;15.67;;;8.80;89.90;;;;;;5053302;28;20188;-75
2022/03/14 03:53:12;;;;;;;37.03;16.37;;;8.80;91.50;;;;;;5053210;28;20210;-75
2022/03/14 03:55:38;;;;;;;35.33;16.30;;;8.80;92.80;;;;;;5053306;28;20221;-74
2022/03/14 03:58:05;;;;;;;37.83;16.40;;;8.70;92.30;;;;;;5053021;28;20260;-75
2022/03/14 04:00:30;;;;;;;39.10;17.03;;;8.40;93.60;;;;;;5053101;28;20198;-75
2022/03/14 04:02:57;;;;;;;32.90;17.23;;;8.40;95.70;;;;;;5052851;28;20738;-76
2022/03/14 04:05:25;;;;;;;35.33;16.87;;;8.30;97.50;;;;;;5052996;28;20588;-76
2022/03/14 04:07:52;;;;;;;35.27;16.30;;;8.20;98.00;;;;;;5052905;28;20210;-76
2022/03/14 04:10:18;;;;;;;39.93;17.87;;;8.10;99.90;;;;;;5052942;28;20646;-75
2022/03/14 04:12:44;;;;;;;36.80;17.57;;;8.30;99.90;;;;;;5052524;28;20224;-75
2022/03/14 04:15:10;;;;;;;38.83;18.20;;;8.20;99.90;;;;;;5052860;28;20524;-76
2022/03/14 04:17:40;;;;;;;42.80;19.10;;;7.90;99.90;;;;;;5052134;28;20654;-76
2022/03/14 04:20:08;;;;;;;45.10;20.53;;;8.00;99.90;;;;;;5052721;28;20717;-75
2022/03/14 04:22:38;;;;;;;40.67;18.93;;;8.00;99.90;;;;;;5052518;28;20184;-76
2022/03/14 04:25:06;;;;;;;42.70;19.97;;;7.70;99.90;;;;;;5052235;28;20181;-75
2022/03/14 04:27:32;;;;;;;44.47;20.63;;;7.70;99.90;;;;;;5052503;28;20297;-75
2022/03/14 04:29:57;;;;;;;44.40;20.97;;;7.70;99.90;;;;;;5052605;28;20180;-75
2022/03/14 04:32:23;;;;;;;52.97;20.90;;;7.80;99.90;;;;;;5052023;28;20171;-75
2022/03/14 04:34:50;;;;;;;45.30;20.90;;;7.80;99.90;;;;;;5052396;28;20667;-75
2022/03/14 04:37:16;;;;;;;50.20;20.87;;;7.70;99.90;;;;;;5052557;28;20180;-75
2022/03/14 04:39:42;;;;;;;51.33;21.17;;;7.80;99.90;;;;;;5052240;28;20696;-75
2022/03/14 04:42:09;;;;;;;53.33;22.93;;;7.90;99.90;;;;;;5052153;28;20209;-75
2022/03/14 04:44:35;;;;;;;50.60;21.13;;;7.80;99.90;;;;;;5052301;28;20264;-75
2022/03/14 04:47:02;;;;;;;49.80;22.37;;;7.80;99.90;;;;;;5052325;28;20554;-75
2022/03/14 04:49:28;;;;;;;48.33;21.30;;;7.80;99.90;;;;;;5052135;28;20195;-75
2022/03/14 04:51:55;;;;;;;50.57;22.00;;;7.90;99.90;;;;;;5052033;28;20184;-75
2022/03/14 04:54:22;;;;;;;48.60;22.00;;;7.80;99.90;;;;;;5052086;28;20173;-76
2022/03/14 04:56:47;;;;;;;51.33;21.83;;;7.80;99.90;;;;;;5052133;28;20184;-76
2022/03/14 04:59:13;;;;;;;53.00;23.13;;;7.80;99.90;;;;;;5052025;28;20211;-75
2022/03/14 05:01:39;;;;;;;52.50;22.60;;;7.80;99.90;;;;;;5051969;28;20235;-75
2022/03/14 05:04:05;;;;;;;58.37;23.37;;;7.80;99.90;;;;;;5051996;28;20189;-75
2022/03/14 05:06:32;;;;;;;54.93;23.43;;;7.70;99.90;;;;;;5051879;28;20667;-75
2022/03/14 05:08:58;;;;;;;55.53;23.23;;;7.60;99.90;;;;;;5051720;28;20734;-75
2022/03/14 05:11:25;;;;;;;57.40;23.57;;;7.60;99.90;;;;;;5051715;28;20184;-75
2022/03/14 05:13:51;;;;;;;58.57;23.33;;;7.60;99.90;;;;;;5051777;28;20176;-75
2022/03/14 05:16:16;;;;;;;56.53;23.90;;;7.80;99.90;;;;;;5051254;28;20688;-75
2022/03/14 05:18:42;;;;;;;62.13;24.70;;;7.70;99.90;;;;;;5051608;28;20766;-75
2022/03/14 05:21:08;;;;;;;61.83;25.20;;;7.80;99.90;;;;;;5051430;28;20690;-75
2022/03/14 05:23:34;;;;;;;66.47;26.47;;;7.90;99.90;;;;;;5051527;28;20184;-75
2022/03/14 05:26:00;;;;;;;61.00;24.70;;;7.90;99.90;;;;;;5051424;28;20265;-75
2022/03/14 05:28:26;;;;;;;69.67;26.20;;;7.80;99.90;;;;;;5051433;28;20701;-75
2022/03/14 05:30:51;;;;;;;67.37;25.87;;;7.90;99.90;;;;;;5051042;28;20178;-75
2022/03/14 05:33:17;;;;;;;62.83;25.37;;;7.90;99.90;;;;;;5051191;28;20205;-74
2022/03/14 05:35:43;;;;;;;61.37;26.17;;;7.90;99.90;;;;;;5051394;28;20564;-75
2022/03/14 05:38:09;;;;;;;72.07;25.53;;;7.80;99.90;;;;;;5050671;28;20223;-74
2022/03/14 05:40:34;;;;;;;69.10;26.13;;;7.90;99.90;;;;;;5051314;28;20169;-75
2022/03/14 05:43:06;;;;;;;63.37;25.33;;;7.90;99.90;;;;;;5051059;28;20179;-75
2022/03/14 05:45:32;;;;;;;62.97;25.17;;;7.80;99.90;;;;;;5052443;28;20594;-75
2022/03/14 05:47:57;;;;;;;63.10;24.93;;;7.90;99.90;;;;;;5051004;28;20193;-75
2022/03/14 05:50:24;;;;;;;63.53;25.00;;;8.00;99.90;;;;;;5051133;28;20633;-75
2022/03/14 05:52:51;;;;;;;65.13;24.47;;;8.00;99.90;;;;;;5050733;28;20239;-75
2022/03/14 05:55:16;;;;;;;67.70;26.03;;;8.00;99.90;;;;;;5051024;28;20260;-76
2022/03/14 05:57:42;;;;;;;62.40;26.20;;;8.10;99.90;;;;;;5050964;28;20614;-76
2022/03/14 06:00:09;;;;;;;61.97;24.20;;;8.10;99.90;;;;;;5051533;28;20194;-76
2022/03/14 06:02:35;;;;;;;62.97;25.07;;;8.10;99.90;;;;;;5050815;28;20646;-76
2022/03/14 06:05:01;;;;;;;58.77;23.83;;;8.10;99.90;;;;;;5051106;28;20183;-77
2022/03/14 06:07:27;;;;;;;63.33;24.07;;;8.20;99.90;;;;;;5050746;28;20205;-78
2022/03/14 06:09:53;;;;;;;61.60;24.03;;;8.20;99.90;;;;;;5050619;28;20254;-77
2022/03/14 06:12:24;;;;;;;62.03;25.03;;;8.20;99.90;;;;;;5052140;28;20211;-77
2022/03/14 06:14:52;;;;;;;64.00;24.47;;;8.20;99.90;;;;;;5050879;28;20694;-77
2022/03/14 06:17:17;;;;;;;63.63;23.70;;;8.20;99.90;;;;;;5050389;28;20547;-77
2022/03/14 06:19:43;;;;;;;59.30;23.67;;;8.20;99.90;;;;;;5050534;28;20201;-77
2022/03/14 06:22:09;;;;;;;59.00;22.17;;;8.10;99.90;;;;;;5050761;28;20660;-77
2022/03/14 06:24:34;;;;;;;57.67;23.73;;;8.20;99.90;;;;;;5051062;28;20242;-78
2022/03/14 06:27:00;;;;;;;55.27;22.07;;;8.20;99.90;;;;;;5050847;28;20294;-76
2022/03/14 06:29:25;;;;;;;54.43;23.03;;;8.10;99.90;;;;;;5050888;28;20215;-77
2022/03/14 06:31:51;;;;;;;47.80;21.10;;;8.00;99.90;;;;;;5050385;28;20173;-77
2022/03/14 06:34:17;;;;;;;49.10;20.73;;;8.10;99.90;;;;;;5050731;28;20242;-76
2022/03/14 06:36:44;;;;;;;50.80;20.90;;;8.00;99.90;;;;;;5050999;28;20191;-77
2022/03/14 06:39:10;;;;;;;53.30;22.40;;;8.00;99.90;;;;;;5051199;28;20568;-77
2022/03/14 06:41:39;;;;;;;51.93;21.57;;;8.10;99.90;;;;;;5051112;28;20177;-77
2022/03/14 06:44:05;;;;;;;46.77;20.27;;;8.10;99.90;;;;;;5051258;28;20177;-77
2022/03/14 06:46:31;;;;;;;48.40;20.73;;;8.00;99.90;;;;;;5050761;28;20208;-76
2022/03/14 06:48:58;;;;;;;55.87;21.03;;;8.00;99.90;;;;;;5054327;28;20295;-77
2022/03/14 06:51:24;;;;;;;46.80;19.17;;;8.00;99.90;;;;;;5056938;28;20181;-76
2022/03/14 06:53:50;;;;;;;48.40;21.20;;;7.90;99.90;;;;;;5057081;28;20229;-77
2022/03/14 06:56:16;;;;;;;46.17;19.30;;;8.00;99.90;;;;;;5056922;28;20181;-77
2022/03/14 06:58:42;;;;;;;46.37;20.43;;;7.90;99.90;;;;;;5056670;28;20759;-76
2022/03/14 07:01:08;;;;;;;46.13;18.80;;;7.90;99.90;;;;;;5057119;28;20255;-77
2022/03/14 07:03:34;;;;;;;47.60;20.27;;;8.00;99.90;;;;;;5056846;28;20183;-77
2022/03/14 07:05:59;;;;;;;50.07;20.03;;;7.90;99.90;;;;;;5057059;28;20574;-77
2022/03/14 07:08:25;;;;;;;46.10;19.73;;;8.00;99.90;;;;;;5057313;28;20200;-77
2022/03/14 07:10:51;;;;;;;45.93;18.30;;;7.90;99.90;;;;;;5057043;28;20314;-76
2022/03/14 07:13:16;;;;;;;40.50;18.43;;;7.90;99.90;;;;;;5055258;28;20179;-77
2022/03/14 07:15:42;;;;;;;46.70;19.20;;;7.90;99.90;;;;;;5055641;28;20589;-77
2022/03/14 07:18:08;;;;;;;43.17;18.17;;;7.90;99.90;;;;;;5056737;28;20224;-76
2022/03/14 07:20:33;;;;;;;50.67;18.57;;;7.90;99.90;;;;;;5056988;28;20604;-76
2022/03/14 07:23:00;;;;;;;41.97;18.60;;;7.90;99.90;;;;;;5056377;28;20229;-77
2022/03/14 07:25:36;;;;;;;42.77;17.70;;;7.80;99.90;;;;;;5057005;28;20268;-76
2022/03/14 07:28:05;;;;;;;38.43;17.20;;;7.80;99.90;;;;;;5056916;28;20250;-76
2022/03/14 07:30:30;;;;;;;37.27;16.77;;;7.80;99.90;;;;;;5056752;28;20184;-76
2022/03/14 07:32:56;;;;;;;42.73;16.83;;;7.90;99.90;;;;;;5056645;28;20199;-77
2022/03/14 07:35:23;;;;;;;37.90;17.47;;;7.80;99.90;;;;;;5058084;28;20168;-76
2022/03/14 07:37:49;;;;;;;37.33;17.57;;;7.80;99.90;;;;;;5056755;28;20176;-76
2022/03/14 07:40:15;;;;;;;38.33;16.50;;;7.70;99.90;;;;;;5056782;28;20181;-76
2022/03/14 07:42:46;;;;;;;43.47;17.67;;;7.70;99.90;;;;;;5056590;28;20313;-77
2022/03/14 07:45:14;;;;;;;38.43;15.77;;;7.80;99.90;;;;;;5056567;28;20218;-76
2022/03/14 07:47:40;;;;;;;40.07;16.20;;;7.80;99.90;;;;;;5056651;28;20572;-76
2022/03/14 07:50:08;;;;;;;40.63;18.17;;;7.80;99.90;;;;;;5056682;28;20170;-76
2022/03/14 07:52:36;;;;;;;41.90;18.00;;;7.80;99.90;;;;;;5056497;28;20184;-76
2022/03/14 07:55:02;;;;;;;40.23;17.93;;;8.00;99.90;;;;;;5056637;28;20183;-76
2022/03/14 07:57:30;;;;;;;45.40;17.80;;;7.90;99.90;;;;;;5056646;28;20183;-76
2022/03/14 07:59:55;;;;;;;43.17;18.90;;;7.90;99.90;;;;;;5054514;28;20200;-76
2022/03/14 08:02:21;;;;;;;41.43;18.37;;;7.90;99.90;;;;;;5053263;28;20178;-76
2022/03/14 08:04:46;;;;;;;37.70;17.53;;;8.00;99.90;;;;;;5053352;28;20178;-76
2022/03/14 08:07:13;;;;;;;35.93;16.87;;;8.00;99.90;;;;;;5053312;28;20296;-76
2022/03/14 08:09:38;;;;;;;38.07;17.20;;;7.90;99.90;;;;;;5053100;28;20201;-76
2022/03/14 08:12:05;;;;;;;37.07;17.53;;;8.00;99.90;;;;;;5053065;28;20544;-76
2022/03/14 08:14:31;;;;;;;42.23;17.27;;;8.00;99.90;;;;;;5052889;28;20176;-76
2022/03/14 08:16:57;;;;;;;38.43;16.47;;;8.00;99.90;;;;;;5052798;28;20638;-76
2022/03/14 08:19:23;;;;;;;33.03;16.03;;;7.90;99.90;;;;;;5053085;28;20650;-76
2022/03/14 08:21:51;;;;;;;33.03;15.40;;;7.90;99.90;;;;;;5052417;28;20211;-76
2022/03/14 08:24:17;;;;;;;36.50;15.33;;;8.00;99.90;;;;;;5052947;28;20243;-76
2022/03/14 08:26:43;;;;;;;32.43;14.80;;;8.10;99.90;;;;;;5052799;28;20205;-76
2022/03/14 08:29:09;;;;;;;32.40;15.50;;;8.20;99.90;;;;;;5052763;28;20776;-76
2022/03/14 08:31:36;;;;;;;28.57;13.67;;;8.20;99.90;;;;;;5052830;28;20626;-76
2022/03/14 08:34:02;;;;;;;36.33;15.30;;;8.10;99.90;;;;;;5052903;28;20177;-76
2022/03/14 08:36:28;;;;;;;34.77;16.40;;;8.10;99.90;;;;;;5052865;28;20182;-76
2022/03/14 08:38:54;;;;;;;38.23;16.17;;;8.20;99.90;;;;;;5052793;28;20615;-76
2022/03/14 08:41:20;;;;;;;35.30;16.97;;;8.20;99.90;;;;;;5052443;28;20183;-76
2022/03/14 08:43:46;;;;;;;41.30;17.90;;;8.30;99.90;;;;;;5052651;28;20178;-76
2022/03/14 08:46:14;;;;;;;40.93;18.47;;;8.40;99.90;;;;;;5052523;28;20201;-76
2022/03/14 08:48:41;;;;;;;38.73;18.67;;;8.40;99.90;;;;;;5052601;28;20204;-76
2022/03/14 08:51:07;;;;;;;39.73;18.47;;;8.50;99.90;;;;;;5052469;28;20180;-76
2022/03/14 08:53:32;;;;;;;41.43;18.20;;;8.50;99.90;;;;;;5052484;28;20633;-76
2022/03/14 08:56:01;;;;;;;37.73;16.73;;;8.70;99.90;;;;;;5052330;28;20177;-76
2022/03/14 08:58:29;;;;;;;35.90;16.13;;;8.60;99.90;;;;;;5052365;28;20205;-76
2022/03/14 09:00:55;;;;;;;34.77;15.63;;;8.60;99.90;;;;;;5052370;28;20227;-76
2022/03/14 09:03:21;;;;;;;32.13;15.33;;;8.60;99.90;;;;;;5052188;28;20187;-76
2022/03/14 09:05:47;;;;;;;34.53;15.20;;;8.60;99.90;;;;;;5052197;28;20275;-75
2022/03/14 09:08:12;;;;;;;33.37;16.13;;;8.60;99.90;;;;;;5052208;28;20225;-75
2022/03/14 09:10:39;;;;;;;35.30;15.60;;;8.70;99.90;;;;;;5052068;28;20180;-75
2022/03/14 09:13:05;;;;;;;30.77;15.70;;;8.60;99.90;;;;;;5050998;28;20597;-75
2022/03/14 09:15:30;;;;;;;29.77;15.13;;;8.70;99.90;;;;;;5051775;28;20201;-75
2022/03/14 09:17:59;;;;;;;25.93;14.37;;;8.70;99.90;;;;;;5052167;28;20286;-75
2022/03/14 09:20:29;;;;;;;32.67;14.23;;;8.80;99.90;;;;;;5051978;28;20209;-75
2022/03/14 09:22:56;;;;;;;31.90;14.90;;;8.80;99.90;;;;;;5050964;28;20173;-76
2022/03/14 09:25:22;;;;;;;27.40;14.47;;;8.80;99.90;;;;;;5051829;28;20182;-75
2022/03/14 09:27:49;;;;;;;30.63;14.70;;;8.90;99.90;;;;;;5051630;28;20223;-75
2022/03/14 09:30:16;;;;;;;32.27;14.37;;;8.90;99.90;;;;;;5052121;28;20564;-75
2022/03/14 09:32:42;;;;;;;24.60;13.57;;;9.00;99.90;;;;;;5051638;28;20650;-75
2022/03/14 09:35:09;;;;;;;27.17;14.90;;;9.10;99.90;;;;;;5051670;28;20653;-75
2022/03/14 09:37:40;;;;;;;26.33;13.93;;;9.10;99.90;;;;;;5051550;28;20610;-75
2022/03/14 09:40:11;;;;;;;26.93;13.17;;;9.30;99.90;;;;;;5051651;28;20173;-76
2022/03/14 09:42:42;;;;;;;27.83;12.63;;;9.30;99.90;;;;;;5051279;28;20188;-75
2022/03/14 09:45:10;;;;;;;23.23;12.70;;;9.30;99.90;;;;;;5051600;28;20168;-76
2022/03/14 09:47:41;;;;;;;22.87;11.70;;;9.40;99.90;;;;;;5051678;28;20211;-75
2022/03/14 09:50:11;;;;;;;21.83;12.03;;;9.40;99.90;;;;;;5051405;28;20655;-76
2022/03/14 09:52:39;;;;;;;23.73;11.80;;;9.60;99.90;;;;;;5051315;28;20274;-76
2022/03/14 09:55:07;;;;;;;22.70;11.33;;;9.70;99.90;;;;;;5051345;28;20184;-76
2022/03/14 09:57:35;;;;;;;27.40;11.83;;;9.80;99.90;;;;;;5051193;28;20194;-75
2022/03/14 10:00:00;;;;;;;20.40;11.43;;;9.70;99.90;;;;;;5051286;28;20222;-76
2022/03/14 10:02:28;;;;;;;22.33;11.27;;;9.70;99.90;;;;;;5051282;28;20630;-75
2022/03/14 10:04:54;;;;;;;25.10;11.87;;;9.70;99.90;;;;;;5050960;28;20210;-76
2022/03/14 10:07:21;;;;;;;25.00;12.37;;;9.60;99.90;;;;;;5051083;28;20206;-76
2022/03/14 10:09:47;;;;;;;23.27;12.43;;;9.60;99.90;;;;;;5051234;28;20574;-76
2022/03/14 10:12:14;;;;;;;23.00;12.70;;;9.70;99.90;;;;;;5050740;28;20594;-75
2022/03/14 10:14:40;;;;;;;20.30;11.23;;;9.70;99.90;;;;;;5050912;28;20724;-75
2022/03/14 10:17:05;;;;;;;23.43;11.63;;;9.80;99.90;;;;;;5050970;28;20274;-76
2022/03/14 10:19:34;;;;;;;25.33;12.57;;;9.80;99.90;;;;;;5050663;28;20287;-75
2022/03/14 10:22:18;;;;;;;22.67;12.30;;;9.70;99.90;;;;;;5049876;28;20641;-76
2022/03/14 10:24:44;;;;;;;21.27;11.80;;;9.70;99.90;;;;;;5050508;28;20177;-77
2022/03/14 10:27:17;;;;;;;20.03;11.70;;;9.70;99.90;;;;;;5050795;28;20209;-76
2022/03/14 10:29:45;;;;;;;19.10;11.60;;;9.90;99.90;;;;;;5051043;28;20240;-76
2022/03/14 10:32:29;;;;;;;23.83;11.83;;;9.90;99.90;;;;;;5050712;28;20173;-76
2022/03/14 10:35:04;;;;;;;24.87;11.80;;;10.10;99.90;;;;;;5050791;28;20174;-76
2022/03/14 10:37:31;;;;;;;21.60;11.33;;;10.20;99.90;;;;;;5050573;28;20240;-76
2022/03/14 10:39:59;;;;;;;19.10;11.43;;;10.30;99.90;;;;;;5050715;28;20198;-76
2022/03/14 10:42:25;;;;;;;19.90;10.90;;;10.30;99.90;;;;;;5050441;28;20561;-76
2022/03/14 10:44:52;;;;;;;18.27;11.57;;;10.30;99.90;;;;;;5050789;28;20180;-76
2022/03/14 10:47:19;;;;;;;20.87;11.50;;;10.40;99.90;;;;;;5050544;28;20204;-76
2022/03/14 10:49:45;;;;;;;21.40;11.43;;;10.50;99.90;;;;;;5050707;28;20198;-76
2022/03/14 10:52:20;;;;;;;22.13;11.57;;;10.60;99.90;;;;;;5050465;28;20574;-76
2022/03/14 10:54:46;;;;;;;22.93;12.17;;;10.60;99.90;;;;;;5050528;28;20176;-76
2022/03/14 10:57:17;;;;;;;20.50;12.03;;;10.90;99.90;;;;;;5050428;28;20180;-76
2022/03/14 10:59:54;;;;;;;18.10;11.17;;;11.20;99.90;;;;;;5050485;28;20251;-77
2022/03/14 11:02:24;;;;;;;16.13;9.93;;;11.20;99.90;;;;;;5050459;28;20185;-76
2022/03/14 11:04:57;;;;;;;19.23;10.50;;;11.30;99.90;;;;;;5051741;28;20642;-77
2022/03/14 11:07:33;;;;;;;19.77;10.67;;;11.40;99.90;;;;;;5050246;28;20689;-77
2022/03/14 11:10:05;;;;;;;22.00;11.47;;;11.40;99.90;;;;;;5050561;28;20523;-77
2022/03/14 11:12:31;;;;;;;16.47;11.30;;;11.10;99.90;;;;;;5050259;28;20174;-77
2022/03/14 11:14:58;;;;;;;19.40;10.90;;;11.00;99.90;;;;;;5050347;28;20173;-77
2022/03/14 11:17:26;;;;;;;20.33;11.27;;;11.00;99.90;;;;;;5050362;28;20211;-76
2022/03/14 11:19:53;;;;;;;20.10;10.77;;;11.20;99.90;;;;;;5050123;28;20285;-77
2022/03/14 11:22:20;;;;;;;20.10;11.73;;;11.20;99.90;;;;;;5049260;28;20188;-76
2022/03/14 11:24:52;;;;;;;25.63;12.70;;;11.10;99.90;;;;;;5049784;28;20315;-76
2022/03/14 11:27:29;;;;;;;23.40;11.57;;;11.10;99.90;;;;;;5050074;28;20214;-76
2022/03/14 11:30:03;;;;;;;18.80;11.27;;;11.00;99.90;;;;;;5050123;28;20208;-76
2022/03/14 11:32:29;;;;;;;23.17;10.70;;;11.00;99.90;;;;;;5050123;28;20180;-76
2022/03/14 11:34:55;;;;;;;21.13;11.20;;;11.10;99.90;;;;;;5050587;28;20177;-76
2022/03/14 11:37:21;;;;;;;17.23;10.07;;;11.20;99.90;;;;;;5053856;28;20232;-76
2022/03/14 11:39:47;;;;;;;20.00;10.67;;;11.50;99.90;;;;;;5053660;28;20291;-76
2022/03/14 11:42:15;;;;;;;15.60;10.03;;;11.60;99.90;;;;;;5053718;28;20181;-76
2022/03/14 11:44:43;;;;;;;18.63;10.93;;;11.70;99.90;;;;;;5053745;28;20181;-76
2022/03/14 11:47:11;;;;;;;17.80;9.53;;;11.70;99.90;;;;;;5055058;28;20674;-76
2022/03/14 11:49:38;;;;;;;19.30;10.73;;;11.80;99.90;;;;;;5053643;28;20395;-75
2022/03/14 11:52:19;;;;;;;20.20;9.57;;;11.90;99.90;;;;;;5053599;28;20179;-76
2022/03/14 11:54:50;;;;;;;21.77;10.03;;;12.10;99.90;;;;;;5053514;28;20668;-76
2022/03/14 11:57:41;;;;;;;18.63;9.77;;;12.10;99.90;;;;;;5053455;28;20227;-76
2022/03/14 12:00:22;;;;;;;20.43;10.80;;;12.10;99.90;;;;;;5053684;28;20191;-78
2022/03/14 12:02:52;;;;;;;18.80;9.63;;;12.20;99.90;;;;;;5053333;28;20183;-76
2022/03/14 12:05:22;;;;;;;15.43;9.87;;;12.20;99.90;;;;;;5053446;28;20185;-76
2022/03/14 12:07:48;;;;;;;16.37;9.60;;;12.60;99.90;;;;;;5053049;28;20206;-75
2022/03/14 12:10:41;;;;;;;19.67;9.93;;;12.80;99.90;;;;;;5053543;28;20657;-76
2022/03/14 12:13:07;;;;;;;16.13;9.77;;;12.80;99.90;;;;;;5050414;28;20392;-76
2022/03/14 12:15:43;;;;;;;21.30;9.10;;;13.00;99.90;;;;;;5052887;28;20514;-75
2022/03/14 12:18:25;;;;;;;19.33;8.90;;;12.60;99.90;;;;;;5053020;28;20192;-76
2022/03/14 12:21:04;;;;;;;18.07;9.10;;;12.20;99.90;;;;;;5053119;28;21022;-76
2022/03/14 12:23:34;;;;;;;14.43;9.03;;;12.20;99.90;;;;;;5052792;28;20179;-76
2022/03/14 12:26:24;;;;;;;21.03;10.90;;;12.10;99.90;;;;;;5053109;28;20180;-76
2022/03/14 12:28:50;;;;;;;19.33;10.00;;;12.30;99.90;;;;;;5045287;28;20199;-75
2022/03/14 12:31:17;;;;;;;20.23;9.67;;;12.80;99.90;;;;;;5052814;28;20173;-75
2022/03/14 12:33:45;;;;;;;17.37;9.93;;;13.00;99.90;;;;;;5052884;28;20178;-75
2022/03/14 12:36:23;;;;;;;18.20;9.60;;;13.10;99.90;;;;;;5052823;28;20664;-76